GW2235 Weather Reports


Display with metric or nautical units.
time (UTC)temp
F
wind
direction
speed
MPH
gust
MPH
rain 1hr
in
rain 24hr
in
rain mn
in
humidity
%
barometer
mb
20221005153001 51 330 5.0 11.0 0.01 2.49 0.81 92 1015.2
20221005151500 51 346 4.0 8.0 0.01 2.49 0.81 92 1015.3
20221005150006 51 342 4.0 9.0 0.00 2.48 0.80 92 1015.2
20221005144501 51 317 3.0 7.0 0.00 2.72 0.80 92 1014.8
20221005143000 51 327 3.0 9.0 0.00 2.72 0.80 92 1014.8
20221005141501 51 323 3.0 8.0 0.00 2.72 0.80 91 1014.8
20221005140008 51 350 4.0 8.0 0.00 2.72 0.80 93 1014.8
20221005134501 51 349 4.0 9.0 0.00 3.00 0.80 93 1014.8
20221005133002 50 355 5.0 9.0 0.00 3.00 0.80 93 1014.7
20221005131500 50 355 4.0 10.0 0.00 3.00 0.80 93 1014.7
20221005130005 49 5 4.0 9.0 0.00 3.00 0.80 93 1014.3
20221005124504 49 339 5.0 11.0 0.00 3.26 0.80 94 1014.5
20221005123000 48 40 3.0 8.0 0.00 3.26 0.80 94 1014.4
20221005120010 47 340 2.0 5.0 0.00 3.26 0.80 94 1014.3
20221005113001 47 166 1.0 3.0 0.00 3.31 0.80 94 1014.2
20221005111501 47 345 2.0 5.0 0.00 3.31 0.80 94 1013.9
20221005110007 47 343 3.0 8.0 0.35 3.31 0.80 94 1013.8
20221005104502 47 316 3.0 8.0 0.35 3.32 0.80 93 1013.7
20221005103000 47 355 2.0 9.0 0.37 3.32 0.80 93 1014.0
20221005101501 47 275 1.0 5.0 0.43 3.32 0.80 93 1014.0
20221004201502 47 311 3.0 9.0 0.05 1.81 1.81 92 1014.9
20221004194658 47 285 4.0 13.0 0.02 1.78 1.78 92 1014.9
20221004193006 47 273 6.0 16.0 0.01 1.77 1.77 92 1015.1
20221004191506 47 360 5.0 14.0 0.01 1.76 1.76 91 1015.1
20221004190008 47 294 6.0 14.0 0.02 1.76 1.76 92 1015.0
20221004184502 47 331 4.0 9.0 0.02 1.76 1.76 92 1015.2
20221004183002 46 5 4.0 10.0 0.02 1.76 1.76 91 1015.4
20221004181502 46 355 7.0 15.0 0.01 1.75 1.75 91 1015.6
20221004180007 46 333 4.0 12.0 0.00 1.74 1.74 91 1015.8
20221004174503 45 12 7.0 18.0 0.01 1.74 1.74 91 1016.0
20221004161502 43 11 6.0 16.0 0.60 1.67 1.67 91 1016.6
20221004160008 42 40 6.0 15.0 0.45 1.43 1.43 91 1016.9
20221004154504 42 72 3.0 9.0 0.37 1.26 1.26 92 1017.3